Exeter, Pennsylvania
Current Conditions -  °F | °C
As of 3:54 PM on Wednesday 17 Dec 2014 (Local Time) from KAVP Reporting Station
Overcast Overcast  
Wind Chill: 36°   Ceiling: 5000
Heat Index: 42°   Visibility: 10mi
Dew Point: 36°   Wind: 12mph
Humidity: 79%   Direction: 230°SW
Pressure: 29.87"   Gusts: 20mph
Location:  41.3688°N, 75.837°W
Report Text: KAVP 172054Z 23010G17KT 10SM FEW022 BKN050 OVC070 06/02 A2987 RMK AO2 RAE10 SLP116 P0000 60001 T00560022 52009
Loading
Personal Weather Stations






























Interactive Weather Map New forecast layout! Learn more

10-Day Weather Forecast

Advertisements
Track Severe Weather on mobile